sensor_id;sensor_type;location;lat;lon;timestamp;temperature;humidity
22364;DHT22;11349;53.412;-1.328;2022-10-23T00:01:32;16.70;1.00
22364;DHT22;11349;53.412;-1.328;2022-10-23T00:04:06;16.80;1.00
22364;DHT22;11349;53.412;-1.328;2022-10-23T00:06:33;16.70;1.00
22364;DHT22;11349;53.412;-1.328;2022-10-23T00:08:59;16.80;1.00
22364;DHT22;11349;53.412;-1.328;2022-10-23T00:11:27;16.80;1.00
22364;DHT22;11349;53.412;-1.328;2022-10-23T00:13:55;16.70;1.00
22364;DHT22;11349;53.412;-1.328;2022-10-23T00:16:22;16.40;1.00
22364;DHT22;11349;53.412;-1.328;2022-10-23T00:18:47;16.30;1.00
22364;DHT22;11349;53.412;-1.328;2022-10-23T00:21:14;16.40;1.00
22364;DHT22;11349;53.412;-1.328;2022-10-23T00:23:41;16.40;1.00
22364;DHT22;11349;53.412;-1.328;2022-10-23T00:26:08;16.50;1.00
22364;DHT22;11349;53.412;-1.328;2022-10-23T00:28:36;16.60;1.00
22364;DHT22;11349;53.412;-1.328;2022-10-23T00:31:04;16.80;1.00
22364;DHT22;11349;53.412;-1.328;2022-10-23T00:33:30;16.80;1.00
22364;DHT22;11349;53.412;-1.328;2022-10-23T00:35:56;16.80;1.00
22364;DHT22;11349;53.412;-1.328;2022-10-23T00:38:22;16.50;1.00
22364;DHT22;11349;53.412;-1.328;2022-10-23T00:40:48;16.30;1.00
22364;DHT22;11349;53.412;-1.328;2022-10-23T00:43:20;16.50;1.00
22364;DHT22;11349;53.412;-1.328;2022-10-23T00:45:46;16.50;1.00
22364;DHT22;11349;53.412;-1.328;2022-10-23T00:48:12;16.30;1.00
22364;DHT22;11349;53.412;-1.328;2022-10-23T00:50:39;16.20;1.00
22364;DHT22;11349;53.412;-1.328;2022-10-23T00:53:06;16.50;1.00
22364;DHT22;11349;53.412;-1.328;2022-10-23T00:55:33;16.50;1.00
22364;DHT22;11349;53.412;-1.328;2022-10-23T00:57:59;16.50;1.00
22364;DHT22;11349;53.412;-1.328;2022-10-23T01:00:39;16.50;1.00
22364;DHT22;11349;53.412;-1.328;2022-10-23T01:03:05;16.70;1.00
22364;DHT22;11349;53.412;-1.328;2022-10-23T01:05:35;16.80;1.00
22364;DHT22;11349;53.412;-1.328;2022-10-23T01:08:27;16.60;1.00
22364;DHT22;11349;53.412;-1.328;2022-10-23T01:11:11;16.90;1.00
22364;DHT22;11349;53.412;-1.328;2022-10-23T01:16:48;16.60;1.00
22364;DHT22;11349;53.412;-1.328;2022-10-23T01:19:24;16.70;1.00
22364;DHT22;11349;53.412;-1.328;2022-10-23T01:24:50;16.30;1.00
22364;DHT22;11349;53.412;-1.328;2022-10-23T01:27:26;16.20;91.70
22364;DHT22;11349;53.412;-1.328;2022-10-23T01:30:05;15.90;99.90
22364;DHT22;11349;53.412;-1.328;2022-10-23T01:37:46;15.70;99.90
22364;DHT22;11349;53.412;-1.328;2022-10-23T01:40:23;15.90;99.90
22364;DHT22;11349;53.412;-1.328;2022-10-23T01:42:52;15.90;99.90
22364;DHT22;11349;53.412;-1.328;2022-10-23T01:48:00;15.80;99.90
22364;DHT22;11349;53.412;-1.328;2022-10-23T01:50:28;15.80;99.90
22364;DHT22;11349;53.412;-1.328;2022-10-23T01:52:54;16.00;96.80
22364;DHT22;11349;53.412;-1.328;2022-10-23T01:55:22;16.20;1.00
22364;DHT22;11349;53.412;-1.328;2022-10-23T01:57:49;16.30;1.00
22364;DHT22;11349;53.412;-1.328;2022-10-23T02:00:17;16.30;1.00
22364;DHT22;11349;53.412;-1.328;2022-10-23T02:02:46;16.10;37.20
22364;DHT22;11349;53.412;-1.328;2022-10-23T02:07:48;15.90;99.90
22364;DHT22;11349;53.412;-1.328;2022-10-23T02:10:15;16.20;1.00
22364;DHT22;11349;53.412;-1.328;2022-10-23T02:20:45;16.10;99.90
22364;DHT22;11349;53.412;-1.328;2022-10-23T02:25:50;15.90;99.90
22364;DHT22;11349;53.412;-1.328;2022-10-23T02:28:25;15.80;99.90
22364;DHT22;11349;53.412;-1.328;2022-10-23T02:30:54;15.80;99.90
22364;DHT22;11349;53.412;-1.328;2022-10-23T02:33:22;15.80;99.90
22364;DHT22;11349;53.412;-1.328;2022-10-23T02:35:50;15.80;99.90
22364;DHT22;11349;53.412;-1.328;2022-10-23T02:38:33;15.50;99.90
22364;DHT22;11349;53.412;-1.328;2022-10-23T02:52:18;15.00;99.90
22364;DHT22;11349;53.412;-1.328;2022-10-23T03:00:07;15.00;99.90
22364;DHT22;11349;53.412;-1.328;2022-10-23T03:05:15;14.90;99.90
22364;DHT22;11349;53.412;-1.328;2022-10-23T03:07:42;14.80;99.90
22364;DHT22;11349;53.412;-1.328;2022-10-23T03:10:09;14.70;99.90
22364;DHT22;11349;53.412;-1.328;2022-10-23T03:12:35;14.80;99.90
22364;DHT22;11349;53.412;-1.328;2022-10-23T03:15:01;14.80;99.90
22364;DHT22;11349;53.412;-1.328;2022-10-23T03:17:27;14.70;99.90
22364;DHT22;11349;53.412;-1.328;2022-10-23T03:19:52;14.70;99.90
22364;DHT22;11349;53.412;-1.328;2022-10-23T03:22:18;14.60;99.90
22364;DHT22;11349;53.412;-1.328;2022-10-23T03:24:44;14.60;99.90
22364;DHT22;11349;53.412;-1.328;2022-10-23T03:27:09;14.60;99.90
22364;DHT22;11349;53.412;-1.328;2022-10-23T03:29:38;14.60;99.90
22364;DHT22;11349;53.412;-1.328;2022-10-23T03:32:04;14.70;99.90
22364;DHT22;11349;53.412;-1.328;2022-10-23T03:34:29;14.80;99.90
22364;DHT22;11349;53.412;-1.328;2022-10-23T03:36:55;14.90;99.90
22364;DHT22;11349;53.412;-1.328;2022-10-23T03:39:21;14.90;99.90
22364;DHT22;11349;53.412;-1.328;2022-10-23T03:41:47;14.90;99.90
22364;DHT22;11349;53.412;-1.328;2022-10-23T03:44:12;14.90;99.90
22364;DHT22;11349;53.412;-1.328;2022-10-23T03:46:38;14.80;99.90
22364;DHT22;11349;53.412;-1.328;2022-10-23T03:49:05;14.80;99.90
22364;DHT22;11349;53.412;-1.328;2022-10-23T03:51:31;15.00;99.90
22364;DHT22;11349;53.412;-1.328;2022-10-23T03:53:57;15.00;99.90
22364;DHT22;11349;53.412;-1.328;2022-10-23T03:56:22;15.10;99.90
22364;DHT22;11349;53.412;-1.328;2022-10-23T03:58:48;15.10;99.90
22364;DHT22;11349;53.412;-1.328;2022-10-23T04:01:14;15.00;99.90
22364;DHT22;11349;53.412;-1.328;2022-10-23T04:03:40;14.90;99.90
22364;DHT22;11349;53.412;-1.328;2022-10-23T04:06:06;14.90;99.90
22364;DHT22;11349;53.412;-1.328;2022-10-23T04:08:31;14.80;99.90
22364;DHT22;11349;53.412;-1.328;2022-10-23T04:10:57;14.70;99.90
22364;DHT22;11349;53.412;-1.328;2022-10-23T04:13:23;14.70;99.90
22364;DHT22;11349;53.412;-1.328;2022-10-23T04:15:50;14.70;99.90
22364;DHT22;11349;53.412;-1.328;2022-10-23T04:18:16;14.60;99.90
22364;DHT22;11349;53.412;-1.328;2022-10-23T04:20:43;14.70;99.90
22364;DHT22;11349;53.412;-1.328;2022-10-23T04:23:09;14.60;99.90
22364;DHT22;11349;53.412;-1.328;2022-10-23T04:25:34;14.60;99.90
22364;DHT22;11349;53.412;-1.328;2022-10-23T04:28:00;14.60;99.90
22364;DHT22;11349;53.412;-1.328;2022-10-23T04:30:26;14.50;99.90
22364;DHT22;11349;53.412;-1.328;2022-10-23T04:32:52;14.50;99.90
22364;DHT22;11349;53.412;-1.328;2022-10-23T04:35:18;14.40;99.90
22364;DHT22;11349;53.412;-1.328;2022-10-23T04:37:44;14.40;99.90
22364;DHT22;11349;53.412;-1.328;2022-10-23T04:40:10;14.30;99.90
22364;DHT22;11349;53.412;-1.328;2022-10-23T04:42:36;14.30;99.90
22364;DHT22;11349;53.412;-1.328;2022-10-23T04:45:02;14.30;99.90
22364;DHT22;11349;53.412;-1.328;2022-10-23T04:47:28;14.20;99.90
22364;DHT22;11349;53.412;-1.328;2022-10-23T04:49:54;14.20;99.90
22364;DHT22;11349;53.412;-1.328;2022-10-23T04:52:20;14.10;99.90
22364;DHT22;11349;53.412;-1.328;2022-10-23T04:54:46;14.10;99.90
22364;DHT22;11349;53.412;-1.328;2022-10-23T04:57:11;14.10;99.90
22364;DHT22;11349;53.412;-1.328;2022-10-23T04:59:37;14.10;99.90
22364;DHT22;11349;53.412;-1.328;2022-10-23T05:02:03;14.10;99.90
22364;DHT22;11349;53.412;-1.328;2022-10-23T05:04:29;14.10;99.90
22364;DHT22;11349;53.412;-1.328;2022-10-23T05:06:54;14.10;99.90
22364;DHT22;11349;53.412;-1.328;2022-10-23T05:09:20;14.10;99.90
22364;DHT22;11349;53.412;-1.328;2022-10-23T05:11:47;14.00;99.90
22364;DHT22;11349;53.412;-1.328;2022-10-23T05:14:13;14.00;99.90
22364;DHT22;11349;53.412;-1.328;2022-10-23T05:17:03;13.90;99.90
22364;DHT22;11349;53.412;-1.328;2022-10-23T05:19:32;13.90;99.90
22364;DHT22;11349;53.412;-1.328;2022-10-23T05:21:59;13.90;99.90
22364;DHT22;11349;53.412;-1.328;2022-10-23T05:24:25;13.90;99.90
22364;DHT22;11349;53.412;-1.328;2022-10-23T05:26:52;13.80;99.90
22364;DHT22;11349;53.412;-1.328;2022-10-23T05:29:19;13.80;99.90
22364;DHT22;11349;53.412;-1.328;2022-10-23T05:31:45;13.90;99.90
22364;DHT22;11349;53.412;-1.328;2022-10-23T05:34:13;13.80;99.90
22364;DHT22;11349;53.412;-1.328;2022-10-23T05:36:40;13.80;99.90
22364;DHT22;11349;53.412;-1.328;2022-10-23T05:39:05;13.80;99.90
22364;DHT22;11349;53.412;-1.328;2022-10-23T05:41:31;13.80;99.90
22364;DHT22;11349;53.412;-1.328;2022-10-23T05:43:57;13.70;99.90
22364;DHT22;11349;53.412;-1.328;2022-10-23T05:46:23;13.70;99.90
22364;DHT22;11349;53.412;-1.328;2022-10-23T05:48:49;13.80;99.90
22364;DHT22;11349;53.412;-1.328;2022-10-23T05:51:16;13.70;99.90
22364;DHT22;11349;53.412;-1.328;2022-10-23T05:53:50;13.60;99.90
22364;DHT22;11349;53.412;-1.328;2022-10-23T05:56:17;13.60;99.90
22364;DHT22;11349;53.412;-1.328;2022-10-23T05:58:43;13.60;99.90
22364;DHT22;11349;53.412;-1.328;2022-10-23T06:01:11;13.50;99.90
22364;DHT22;11349;53.412;-1.328;2022-10-23T06:03:39;13.50;99.90
22364;DHT22;11349;53.412;-1.328;2022-10-23T06:06:05;13.40;99.90
22364;DHT22;11349;53.412;-1.328;2022-10-23T06:08:32;13.40;99.90
22364;DHT22;11349;53.412;-1.328;2022-10-23T06:11:03;13.30;99.90
22364;DHT22;11349;53.412;-1.328;2022-10-23T06:13:29;13.30;99.90
22364;DHT22;11349;53.412;-1.328;2022-10-23T06:15:55;13.30;99.90
22364;DHT22;11349;53.412;-1.328;2022-10-23T06:18:20;13.30;99.90
22364;DHT22;11349;53.412;-1.328;2022-10-23T06:20:46;13.20;99.90
22364;DHT22;11349;53.412;-1.328;2022-10-23T06:23:12;13.20;99.90
22364;DHT22;11349;53.412;-1.328;2022-10-23T06:25:37;13.30;99.90
22364;DHT22;11349;53.412;-1.328;2022-10-23T06:28:03;13.10;99.90
22364;DHT22;11349;53.412;-1.328;2022-10-23T06:30:29;13.20;99.90
22364;DHT22;11349;53.412;-1.328;2022-10-23T06:32:54;13.20;99.90
22364;DHT22;11349;53.412;-1.328;2022-10-23T06:35:20;13.10;99.90
22364;DHT22;11349;53.412;-1.328;2022-10-23T06:37:46;13.00;99.90
22364;DHT22;11349;53.412;-1.328;2022-10-23T06:40:11;13.00;99.90
22364;DHT22;11349;53.412;-1.328;2022-10-23T06:42:37;12.90;99.90
22364;DHT22;11349;53.412;-1.328;2022-10-23T06:45:03;12.90;99.90
22364;DHT22;11349;53.412;-1.328;2022-10-23T06:47:29;12.90;99.90
22364;DHT22;11349;53.412;-1.328;2022-10-23T06:49:55;12.90;99.90
22364;DHT22;11349;53.412;-1.328;2022-10-23T06:52:20;13.00;99.90
22364;DHT22;11349;53.412;-1.328;2022-10-23T06:54:46;12.80;99.90
22364;DHT22;11349;53.412;-1.328;2022-10-23T06:57:12;12.80;99.90
22364;DHT22;11349;53.412;-1.328;2022-10-23T06:59:37;12.90;99.90
22364;DHT22;11349;53.412;-1.328;2022-10-23T07:02:03;13.10;99.90
22364;DHT22;11349;53.412;-1.328;2022-10-23T07:04:29;13.20;99.90
22364;DHT22;11349;53.412;-1.328;2022-10-23T07:06:55;13.10;99.90
22364;DHT22;11349;53.412;-1.328;2022-10-23T07:09:24;13.00;99.90
22364;DHT22;11349;53.412;-1.328;2022-10-23T07:11:49;12.90;99.90
22364;DHT22;11349;53.412;-1.328;2022-10-23T07:14:15;13.00;99.90
22364;DHT22;11349;53.412;-1.328;2022-10-23T07:16:41;12.90;99.90
22364;DHT22;11349;53.412;-1.328;2022-10-23T07:19:07;12.80;99.90
22364;DHT22;11349;53.412;-1.328;2022-10-23T07:21:34;12.80;99.90
22364;DHT22;11349;53.412;-1.328;2022-10-23T07:24:01;12.90;99.90
22364;DHT22;11349;53.412;-1.328;2022-10-23T07:26:27;12.90;99.90
22364;DHT22;11349;53.412;-1.328;2022-10-23T07:28:53;12.90;99.90
22364;DHT22;11349;53.412;-1.328;2022-10-23T07:31:26;12.90;99.90
22364;DHT22;11349;53.412;-1.328;2022-10-23T07:33:52;12.90;99.90
22364;DHT22;11349;53.412;-1.328;2022-10-23T07:36:18;12.90;99.90
22364;DHT22;11349;53.412;-1.328;2022-10-23T07:38:44;12.80;99.90
22364;DHT22;11349;53.412;-1.328;2022-10-23T07:41:11;12.80;99.90
22364;DHT22;11349;53.412;-1.328;2022-10-23T07:43:38;12.80;99.90
22364;DHT22;11349;53.412;-1.328;2022-10-23T07:46:04;12.80;99.90
22364;DHT22;11349;53.412;-1.328;2022-10-23T07:48:30;12.80;99.90
22364;DHT22;11349;53.412;-1.328;2022-10-23T07:51:00;12.90;99.90
22364;DHT22;11349;53.412;-1.328;2022-10-23T07:53:27;12.80;99.90
22364;DHT22;11349;53.412;-1.328;2022-10-23T07:55:55;12.80;99.90
22364;DHT22;11349;53.412;-1.328;2022-10-23T07:58:22;12.80;99.90
22364;DHT22;11349;53.412;-1.328;2022-10-23T08:00:54;12.90;99.90
22364;DHT22;11349;53.412;-1.328;2022-10-23T08:03:20;12.90;99.90
22364;DHT22;11349;53.412;-1.328;2022-10-23T08:05:47;13.00;99.90
22364;DHT22;11349;53.412;-1.328;2022-10-23T08:08:13;13.00;99.90
22364;DHT22;11349;53.412;-1.328;2022-10-23T08:10:38;13.00;99.90
22364;DHT22;11349;53.412;-1.328;2022-10-23T08:13:07;13.00;99.90
22364;DHT22;11349;53.412;-1.328;2022-10-23T08:15:34;13.00;99.90
22364;DHT22;11349;53.412;-1.328;2022-10-23T08:18:00;13.00;99.90
22364;DHT22;11349;53.412;-1.328;2022-10-23T08:20:26;13.00;99.90
22364;DHT22;11349;53.412;-1.328;2022-10-23T08:22:51;13.00;99.90
22364;DHT22;11349;53.412;-1.328;2022-10-23T08:25:17;13.00;99.90
22364;DHT22;11349;53.412;-1.328;2022-10-23T08:27:43;13.10;99.90
22364;DHT22;11349;53.412;-1.328;2022-10-23T08:30:09;13.00;99.90
22364;DHT22;11349;53.412;-1.328;2022-10-23T08:32:35;13.00;99.90
22364;DHT22;11349;53.412;-1.328;2022-10-23T08:35:01;13.00;99.90
22364;DHT22;11349;53.412;-1.328;2022-10-23T08:37:27;13.10;99.90
22364;DHT22;11349;53.412;-1.328;2022-10-23T08:39:52;13.10;99.90
22364;DHT22;11349;53.412;-1.328;2022-10-23T08:42:25;13.10;99.90
22364;DHT22;11349;53.412;-1.328;2022-10-23T08:44:58;13.10;99.90
22364;DHT22;11349;53.412;-1.328;2022-10-23T08:47:43;13.10;99.90
22364;DHT22;11349;53.412;-1.328;2022-10-23T08:50:28;13.10;99.90
22364;DHT22;11349;53.412;-1.328;2022-10-23T08:55:49;13.20;99.90
22364;DHT22;11349;53.412;-1.328;2022-10-23T08:58:23;13.20;99.90
22364;DHT22;11349;53.412;-1.328;2022-10-23T09:00:53;13.20;99.90
22364;DHT22;11349;53.412;-1.328;2022-10-23T09:03:20;13.20;99.90
22364;DHT22;11349;53.412;-1.328;2022-10-23T09:08:52;13.20;99.90
22364;DHT22;11349;53.412;-1.328;2022-10-23T09:19:40;13.20;99.90
22364;DHT22;11349;53.412;-1.328;2022-10-23T09:22:08;13.20;99.90
22364;DHT22;11349;53.412;-1.328;2022-10-23T09:24:35;13.20;99.90
22364;DHT22;11349;53.412;-1.328;2022-10-23T09:27:01;13.20;99.90
22364;DHT22;11349;53.412;-1.328;2022-10-23T09:31:58;13.20;99.90
22364;DHT22;11349;53.412;-1.328;2022-10-23T09:34:29;13.10;99.90
22364;DHT22;11349;53.412;-1.328;2022-10-23T09:36:58;13.10;99.90
22364;DHT22;11349;53.412;-1.328;2022-10-23T09:41:53;13.10;99.90
22364;DHT22;11349;53.412;-1.328;2022-10-23T09:44:31;13.10;99.90
22364;DHT22;11349;53.412;-1.328;2022-10-23T09:47:18;13.20;99.90
22364;DHT22;11349;53.412;-1.328;2022-10-23T09:49:55;13.20;99.90
22364;DHT22;11349;53.412;-1.328;2022-10-23T09:52:28;13.20;99.90
22364;DHT22;11349;53.412;-1.328;2022-10-23T09:55:02;13.30;99.90
22364;DHT22;11349;53.412;-1.328;2022-10-23T09:57:41;13.20;99.90
22364;DHT22;11349;53.412;-1.328;2022-10-23T10:00:18;13.20;99.90
22364;DHT22;11349;53.412;-1.328;2022-10-23T10:03:02;13.20;99.90
22364;DHT22;11349;53.412;-1.328;2022-10-23T10:05:31;13.30;99.90
22364;DHT22;11349;53.412;-1.328;2022-10-23T10:10:55;13.30;99.90
22364;DHT22;11349;53.412;-1.328;2022-10-23T10:19:33;13.40;99.90
22364;DHT22;11349;53.412;-1.328;2022-10-23T10:30:27;13.50;99.90
22364;DHT22;11349;53.412;-1.328;2022-10-23T10:38:52;13.60;99.90
22364;DHT22;11349;53.412;-1.328;2022-10-23T10:41:33;13.70;99.90
22364;DHT22;11349;53.412;-1.328;2022-10-23T10:44:16;13.80;99.90
22364;DHT22;11349;53.412;-1.328;2022-10-23T10:46:58;13.80;99.90
22364;DHT22;11349;53.412;-1.328;2022-10-23T10:49:48;13.80;99.90
22364;DHT22;11349;53.412;-1.328;2022-10-23T10:57:34;13.90;99.90
22364;DHT22;11349;53.412;-1.328;2022-10-23T11:00:19;13.90;99.90
22364;DHT22;11349;53.412;-1.328;2022-10-23T11:02:52;14.00;99.90
22364;DHT22;11349;53.412;-1.328;2022-10-23T11:05:34;14.00;99.90
22364;DHT22;11349;53.412;-1.328;2022-10-23T11:08:10;14.00;99.90
22364;DHT22;11349;53.412;-1.328;2022-10-23T11:10:41;14.00;99.90
22364;DHT22;11349;53.412;-1.328;2022-10-23T11:13:27;14.10;99.90
22364;DHT22;11349;53.412;-1.328;2022-10-23T11:15:58;14.10;99.90
22364;DHT22;11349;53.412;-1.328;2022-10-23T11:18:28;14.10;99.90
22364;DHT22;11349;53.412;-1.328;2022-10-23T11:20:59;14.10;99.90
22364;DHT22;11349;53.412;-1.328;2022-10-23T11:24:04;14.20;99.90
22364;DHT22;11349;53.412;-1.328;2022-10-23T11:26:46;14.20;99.90
22364;DHT22;11349;53.412;-1.328;2022-10-23T11:29:29;14.10;99.90
22364;DHT22;11349;53.412;-1.328;2022-10-23T11:37:22;14.30;99.90
22364;DHT22;11349;53.412;-1.328;2022-10-23T11:48:21;14.40;99.90
22364;DHT22;11349;53.412;-1.328;2022-10-23T11:58:52;14.50;99.90
22364;DHT22;11349;53.412;-1.328;2022-10-23T12:04:44;14.60;99.90
22364;DHT22;11349;53.412;-1.328;2022-10-23T12:06:52;14.60;99.90
22364;DHT22;11349;53.412;-1.328;2022-10-23T12:09:45;14.60;99.90
22364;DHT22;11349;53.412;-1.328;2022-10-23T12:12:37;14.60;99.90
22364;DHT22;11349;53.412;-1.328;2022-10-23T12:17:44;14.60;99.90
22364;DHT22;11349;53.412;-1.328;2022-10-23T12:39:33;15.00;99.90
22364;DHT22;11349;53.412;-1.328;2022-10-23T12:42:17;15.10;99.90
22364;DHT22;11349;53.412;-1.328;2022-10-23T12:44:44;15.20;99.90
22364;DHT22;11349;53.412;-1.328;2022-10-23T12:47:17;15.10;99.90
22364;DHT22;11349;53.412;-1.328;2022-10-23T12:49:48;15.20;99.90
22364;DHT22;11349;53.412;-1.328;2022-10-23T12:52:16;15.30;99.90
22364;DHT22;11349;53.412;-1.328;2022-10-23T12:54:43;15.30;99.90
22364;DHT22;11349;53.412;-1.328;2022-10-23T12:57:19;15.40;99.90
22364;DHT22;11349;53.412;-1.328;2022-10-23T12:59:47;15.50;99.90
22364;DHT22;11349;53.412;-1.328;2022-10-23T13:02:33;15.50;99.90
22364;DHT22;11349;53.412;-1.328;2022-10-23T13:05:00;15.60;99.90
22364;DHT22;11349;53.412;-1.328;2022-10-23T13:07:29;15.70;99.90
22364;DHT22;11349;53.412;-1.328;2022-10-23T13:09:57;15.70;99.90
22364;DHT22;11349;53.412;-1.328;2022-10-23T13:12:29;15.80;99.90
22364;DHT22;11349;53.412;-1.328;2022-10-23T13:17:39;16.00;99.90
22364;DHT22;11349;53.412;-1.328;2022-10-23T13:20:26;16.10;99.90
22364;DHT22;11349;53.412;-1.328;2022-10-23T13:23:08;16.00;99.90
22364;DHT22;11349;53.412;-1.328;2022-10-23T13:25:36;16.10;99.90
22364;DHT22;11349;53.412;-1.328;2022-10-23T13:30:43;16.20;99.90
22364;DHT22;11349;53.412;-1.328;2022-10-23T13:35:59;16.30;99.90
22364;DHT22;11349;53.412;-1.328;2022-10-23T13:38:34;16.40;99.90
22364;DHT22;11349;53.412;-1.328;2022-10-23T13:41:01;16.40;99.90
22364;DHT22;11349;53.412;-1.328;2022-10-23T13:43:28;16.50;99.90
22364;DHT22;11349;53.412;-1.328;2022-10-23T13:45:59;16.60;99.90
22364;DHT22;11349;53.412;-1.328;2022-10-23T13:48:25;16.50;99.90
22364;DHT22;11349;53.412;-1.328;2022-10-23T13:50:52;16.50;99.90
22364;DHT22;11349;53.412;-1.328;2022-10-23T13:53:18;16.50;99.90
22364;DHT22;11349;53.412;-1.328;2022-10-23T13:55:45;16.70;99.90
22364;DHT22;11349;53.412;-1.328;2022-10-23T13:58:12;16.50;99.90
22364;DHT22;11349;53.412;-1.328;2022-10-23T14:00:38;16.50;99.90
22364;DHT22;11349;53.412;-1.328;2022-10-23T14:03:05;16.50;99.90
22364;DHT22;11349;53.412;-1.328;2022-10-23T14:05:30;16.50;99.90
22364;DHT22;11349;53.412;-1.328;2022-10-23T14:07:56;16.40;99.90
22364;DHT22;11349;53.412;-1.328;2022-10-23T14:10:22;16.60;99.90
22364;DHT22;11349;53.412;-1.328;2022-10-23T14:12:48;16.50;99.90
22364;DHT22;11349;53.412;-1.328;2022-10-23T14:15:18;16.40;99.90
22364;DHT22;11349;53.412;-1.328;2022-10-23T14:17:44;16.50;99.90
22364;DHT22;11349;53.412;-1.328;2022-10-23T14:20:10;16.70;99.90
22364;DHT22;11349;53.412;-1.328;2022-10-23T14:22:36;16.50;99.90
22364;DHT22;11349;53.412;-1.328;2022-10-23T14:25:02;16.50;99.90
22364;DHT22;11349;53.412;-1.328;2022-10-23T14:27:29;16.60;99.90
22364;DHT22;11349;53.412;-1.328;2022-10-23T14:29:55;16.70;99.90
22364;DHT22;11349;53.412;-1.328;2022-10-23T14:32:21;16.60;99.90
22364;DHT22;11349;53.412;-1.328;2022-10-23T14:34:50;16.50;99.90
22364;DHT22;11349;53.412;-1.328;2022-10-23T14:37:17;16.50;99.90
22364;DHT22;11349;53.412;-1.328;2022-10-23T14:39:44;16.30;99.90
22364;DHT22;11349;53.412;-1.328;2022-10-23T14:42:10;16.20;99.90
22364;DHT22;11349;53.412;-1.328;2022-10-23T14:44:36;16.20;99.90
22364;DHT22;11349;53.412;-1.328;2022-10-23T14:47:02;16.10;99.90
22364;DHT22;11349;53.412;-1.328;2022-10-23T14:49:28;16.10;99.90
22364;DHT22;11349;53.412;-1.328;2022-10-23T14:51:54;16.30;99.90
22364;DHT22;11349;53.412;-1.328;2022-10-23T14:54:20;16.30;99.90
22364;DHT22;11349;53.412;-1.328;2022-10-23T14:56:46;16.30;99.90
22364;DHT22;11349;53.412;-1.328;2022-10-23T14:59:11;16.30;99.90
22364;DHT22;11349;53.412;-1.328;2022-10-23T15:01:43;16.30;99.90
22364;DHT22;11349;53.412;-1.328;2022-10-23T15:04:10;16.30;99.90
22364;DHT22;11349;53.412;-1.328;2022-10-23T15:06:36;16.20;99.90
22364;DHT22;11349;53.412;-1.328;2022-10-23T15:09:03;16.30;99.90
22364;DHT22;11349;53.412;-1.328;2022-10-23T15:11:28;16.60;99.90
22364;DHT22;11349;53.412;-1.328;2022-10-23T15:13:54;16.50;99.90
22364;DHT22;11349;53.412;-1.328;2022-10-23T15:16:21;16.60;99.90
22364;DHT22;11349;53.412;-1.328;2022-10-23T15:18:47;16.70;99.90
22364;DHT22;11349;53.412;-1.328;2022-10-23T15:21:14;16.70;99.90
22364;DHT22;11349;53.412;-1.328;2022-10-23T15:23:42;16.70;99.90
22364;DHT22;11349;53.412;-1.328;2022-10-23T15:26:15;16.50;99.90
22364;DHT22;11349;53.412;-1.328;2022-10-23T15:28:45;16.50;99.90
22364;DHT22;11349;53.412;-1.328;2022-10-23T15:34:03;16.40;99.90
22364;DHT22;11349;53.412;-1.328;2022-10-23T15:36:29;16.30;99.90
22364;DHT22;11349;53.412;-1.328;2022-10-23T15:38:55;16.40;99.90
22364;DHT22;11349;53.412;-1.328;2022-10-23T15:41:27;16.40;99.90
22364;DHT22;11349;53.412;-1.328;2022-10-23T15:43:52;16.30;99.90
22364;DHT22;11349;53.412;-1.328;2022-10-23T15:46:18;16.40;99.90
22364;DHT22;11349;53.412;-1.328;2022-10-23T15:48:44;16.60;99.90
22364;DHT22;11349;53.412;-1.328;2022-10-23T15:51:10;16.30;99.90
22364;DHT22;11349;53.412;-1.328;2022-10-23T15:53:35;16.50;99.90
22364;DHT22;11349;53.412;-1.328;2022-10-23T15:56:01;16.30;99.90
22364;DHT22;11349;53.412;-1.328;2022-10-23T15:58:27;16.20;99.90
22364;DHT22;11349;53.412;-1.328;2022-10-23T16:00:52;16.00;99.90
22364;DHT22;11349;53.412;-1.328;2022-10-23T16:03:18;16.00;99.90
22364;DHT22;11349;53.412;-1.328;2022-10-23T16:05:44;15.80;99.90
22364;DHT22;11349;53.412;-1.328;2022-10-23T16:08:09;15.80;99.90
22364;DHT22;11349;53.412;-1.328;2022-10-23T16:10:42;15.70;99.90
22364;DHT22;11349;53.412;-1.328;2022-10-23T16:13:08;15.70;99.90
22364;DHT22;11349;53.412;-1.328;2022-10-23T16:15:37;15.70;99.90
22364;DHT22;11349;53.412;-1.328;2022-10-23T16:18:03;15.70;99.90
22364;DHT22;11349;53.412;-1.328;2022-10-23T16:20:29;15.70;99.90
22364;DHT22;11349;53.412;-1.328;2022-10-23T16:22:55;15.60;99.90
22364;DHT22;11349;53.412;-1.328;2022-10-23T16:25:21;15.50;99.90
22364;DHT22;11349;53.412;-1.328;2022-10-23T16:27:46;15.50;99.90
22364;DHT22;11349;53.412;-1.328;2022-10-23T16:30:13;15.40;99.90
22364;DHT22;11349;53.412;-1.328;2022-10-23T16:32:40;15.40;99.90
22364;DHT22;11349;53.412;-1.328;2022-10-23T16:35:06;15.40;99.90
22364;DHT22;11349;53.412;-1.328;2022-10-23T16:37:32;15.40;99.90
22364;DHT22;11349;53.412;-1.328;2022-10-23T16:39:58;15.30;99.90
22364;DHT22;11349;53.412;-1.328;2022-10-23T16:42:25;15.30;99.90
22364;DHT22;11349;53.412;-1.328;2022-10-23T16:44:51;15.30;99.90
22364;DHT22;11349;53.412;-1.328;2022-10-23T16:47:17;15.30;99.90
22364;DHT22;11349;53.412;-1.328;2022-10-23T16:49:42;15.20;99.90
22364;DHT22;11349;53.412;-1.328;2022-10-23T16:52:08;15.10;99.90
22364;DHT22;11349;53.412;-1.328;2022-10-23T16:54:34;15.10;99.90
22364;DHT22;11349;53.412;-1.328;2022-10-23T16:57:00;15.10;99.90
22364;DHT22;11349;53.412;-1.328;2022-10-23T16:59:26;15.10;99.90
22364;DHT22;11349;53.412;-1.328;2022-10-23T17:01:51;15.00;99.90
22364;DHT22;11349;53.412;-1.328;2022-10-23T17:04:17;15.00;99.90
22364;DHT22;11349;53.412;-1.328;2022-10-23T17:06:43;14.90;99.90
22364;DHT22;11349;53.412;-1.328;2022-10-23T17:09:09;14.90;99.90
22364;DHT22;11349;53.412;-1.328;2022-10-23T17:11:37;14.80;99.90
22364;DHT22;11349;53.412;-1.328;2022-10-23T17:14:05;14.80;99.90
22364;DHT22;11349;53.412;-1.328;2022-10-23T17:16:41;14.80;99.90
22364;DHT22;11349;53.412;-1.328;2022-10-23T17:19:10;14.70;99.90
22364;DHT22;11349;53.412;-1.328;2022-10-23T17:21:38;14.70;99.90
22364;DHT22;11349;53.412;-1.328;2022-10-23T17:24:05;14.70;99.90
22364;DHT22;11349;53.412;-1.328;2022-10-23T17:26:31;14.70;99.90
22364;DHT22;11349;53.412;-1.328;2022-10-23T17:28:58;14.60;99.90
22364;DHT22;11349;53.412;-1.328;2022-10-23T17:31:29;14.60;99.90
22364;DHT22;11349;53.412;-1.328;2022-10-23T17:33:57;14.60;99.90
22364;DHT22;11349;53.412;-1.328;2022-10-23T17:36:27;14.50;99.90
22364;DHT22;11349;53.412;-1.328;2022-10-23T17:38:53;14.50;99.90
22364;DHT22;11349;53.412;-1.328;2022-10-23T17:41:21;14.50;99.90
22364;DHT22;11349;53.412;-1.328;2022-10-23T17:43:48;14.50;99.90
22364;DHT22;11349;53.412;-1.328;2022-10-23T17:46:15;14.50;99.90
22364;DHT22;11349;53.412;-1.328;2022-10-23T17:48:41;14.40;99.90
22364;DHT22;11349;53.412;-1.328;2022-10-23T17:51:15;14.50;99.90
22364;DHT22;11349;53.412;-1.328;2022-10-23T17:53:43;14.50;99.90
22364;DHT22;11349;53.412;-1.328;2022-10-23T17:56:14;14.50;99.90
22364;DHT22;11349;53.412;-1.328;2022-10-23T17:58:48;14.40;99.90